sim
Sign-in with your pilot id or email,
or register
Callsign
Passwort

Schedule Details

Flight Number: DLH2089
Departure: Hamburg Airport (EDDH) at 20:15
Arrival: Munich Airport (EDDM) at 21:30
Route: Lufthansa Passenger Schedule. Enter filed route here before submitting Pirep.

Weather Information
Getting current METAR information for EDDH 192220Z 06006KT CAVOK 09/07 Q1021 NOSIG
Getting current METAR information for EDDM 192220Z VRB01KT CAVOK 09/08 Q1017 NOSIG

Schedule Frequency

Route Map